createdAt,value
2019-03-09T00:01:05.110Z,67.60
2019-03-09T00:03:36.632Z,67.60
2019-03-09T00:06:06.815Z,67.50
2019-03-09T00:08:36.336Z,67.80
2019-03-09T00:11:05.746Z,67.90
2019-03-09T00:13:37.928Z,68.20
2019-03-09T00:16:07.268Z,68.50
2019-03-09T00:18:37.044Z,69.10
2019-03-09T00:21:06.557Z,69.50
2019-03-09T00:24:06.833Z,69.70
2019-03-09T00:26:53.761Z,70.10
2019-03-09T00:29:28.479Z,70.40
2019-03-09T00:32:05.278Z,70.40
2019-03-09T00:34:35.324Z,70.00
2019-03-09T00:37:04.746Z,70.00
2019-03-09T00:39:34.122Z,69.90
2019-03-09T00:42:06.026Z,70.10
2019-03-09T00:44:35.450Z,70.40
2019-03-09T00:47:05.945Z,70.80
2019-03-09T00:49:35.242Z,71.20
2019-03-09T00:52:04.644Z,71.20
2019-03-09T00:54:33.894Z,71.50
2019-03-09T00:57:03.339Z,72.50
2019-03-09T00:59:32.716Z,71.90
2019-03-09T01:02:02.258Z,71.20
2019-03-09T01:04:32.238Z,70.80
2019-03-09T01:07:02.638Z,70.60
2019-03-09T01:09:31.915Z,70.50
2019-03-09T01:12:01.438Z,70.90
2019-03-09T01:14:30.749Z,70.90
2019-03-09T01:17:00.133Z,71.10
2019-03-09T01:19:29.734Z,71.10
2019-03-09T01:21:59.459Z,71.40
2019-03-09T01:24:28.853Z,71.40
2019-03-09T01:26:58.374Z,71.80
2019-03-09T01:29:31.039Z,72.20
2019-03-09T01:32:00.840Z,72.60
2019-03-09T01:34:30.262Z,72.40
2019-03-09T01:36:59.630Z,72.30
2019-03-09T01:39:28.889Z,72.10
2019-03-09T01:41:59.340Z,72.20
2019-03-09T01:44:29.174Z,72.10
2019-03-09T01:46:58.443Z,72.20
2019-03-09T01:49:28.914Z,72.00
2019-03-09T01:51:58.239Z,72.00
2019-03-09T01:54:27.590Z,71.90
2019-03-09T01:56:57.029Z,71.70
2019-03-09T01:59:26.307Z,71.70
2019-03-09T02:01:57.366Z,71.60
2019-03-09T02:04:26.612Z,71.70
2019-03-09T02:06:56.069Z,71.80
2019-03-09T02:09:25.430Z,71.70
2019-03-09T02:11:54.791Z,71.90
2019-03-09T02:14:24.294Z,71.80
2019-03-09T02:16:53.760Z,71.90
2019-03-09T02:19:23.029Z,71.80
2019-03-09T02:21:52.546Z,71.60
2019-03-09T02:24:21.902Z,71.50
2019-03-09T02:26:51.274Z,71.40
2019-03-09T02:29:20.568Z,71.60
2019-03-09T02:31:50.102Z,71.60
2019-03-09T02:34:19.525Z,71.60
2019-03-09T02:36:48.931Z,71.80
2019-03-09T02:39:32.229Z,71.70
2019-03-09T02:42:01.564Z,72.00
2019-03-09T02:44:30.895Z,72.20
2019-03-09T02:47:00.216Z,72.50
2019-03-09T02:49:29.491Z,72.30
2019-03-09T02:51:58.827Z,72.20
2019-03-09T02:54:28.115Z,72.50
2019-03-09T02:56:57.612Z,72.50
2019-03-09T02:59:29.252Z,72.40
2019-03-09T03:02:04.214Z,73.20
2019-03-09T03:04:33.489Z,73.90
2019-03-09T03:07:03.514Z,74.10
2019-03-09T03:09:32.746Z,74.50
2019-03-09T03:12:02.089Z,74.10
2019-03-09T03:14:32.583Z,74.00
2019-03-09T03:17:02.519Z,74.00
2019-03-09T03:19:31.873Z,74.40
2019-03-09T03:22:01.317Z,74.60
2019-03-09T03:24:30.756Z,75.00
2019-03-09T03:27:00.139Z,75.40
2019-03-09T03:29:29.435Z,75.40
2019-03-09T03:31:58.976Z,75.50
2019-03-09T03:34:28.404Z,75.90
2019-03-09T03:36:58.115Z,75.80
2019-03-09T03:39:27.685Z,75.90
2019-03-09T03:41:57.253Z,76.00
2019-03-09T03:44:27.051Z,75.70
2019-03-09T03:46:56.349Z,75.70
2019-03-09T03:49:26.276Z,75.20
2019-03-09T03:51:55.633Z,74.20
2019-03-09T03:54:24.920Z,73.20
2019-03-09T03:56:58.231Z,72.90
2019-03-09T03:59:27.556Z,73.10
2019-03-09T04:01:57.328Z,74.10
2019-03-09T04:04:26.784Z,74.10
2019-03-09T04:06:56.838Z,74.60
2019-03-09T04:09:26.219Z,73.50
2019-03-09T04:11:55.886Z,73.90
2019-03-09T04:14:25.302Z,74.00
2019-03-09T04:16:54.601Z,74.10
2019-03-09T04:19:23.903Z,74.20
2019-03-09T04:21:54.295Z,74.30
2019-03-09T04:24:23.637Z,73.80
2019-03-09T04:26:53.106Z,73.60
2019-03-09T04:29:22.463Z,72.90
2019-03-09T04:31:54.248Z,73.50
2019-03-09T04:34:24.250Z,73.10
2019-03-09T04:37:00.130Z,73.10
2019-03-09T04:39:29.533Z,73.70
2019-03-09T04:41:59.964Z,74.10
2019-03-09T04:44:29.298Z,74.20
2019-03-09T04:46:58.560Z,73.90
2019-03-09T04:49:28.055Z,73.80
2019-03-09T04:51:57.606Z,73.60
2019-03-09T04:54:29.096Z,73.80
2019-03-09T04:56:58.479Z,73.80
2019-03-09T04:59:27.792Z,73.40
2019-03-09T05:01:57.310Z,73.30
2019-03-09T05:04:53.917Z,73.00
2019-03-09T05:07:45.634Z,73.00
2019-03-09T05:10:36.095Z,72.90
2019-03-09T05:13:11.954Z,72.80
2019-03-09T05:15:41.232Z,72.90
2019-03-09T05:18:10.769Z,73.20
2019-03-09T05:20:40.127Z,73.90
2019-03-09T05:23:09.566Z,74.40
2019-03-09T05:25:39.548Z,75.10
2019-03-09T05:28:11.081Z,75.90
2019-03-09T05:30:41.845Z,76.00
2019-03-09T05:33:11.749Z,76.20
2019-03-09T05:35:41.098Z,76.50
2019-03-09T05:38:10.549Z,76.90
2019-03-09T05:40:40.536Z,77.50
2019-03-09T05:43:09.979Z,76.20
2019-03-09T05:45:40.307Z,76.30
2019-03-09T05:48:09.615Z,76.10
2019-03-09T05:50:40.195Z,75.80
2019-03-09T05:53:18.760Z,75.30
2019-03-09T05:55:48.091Z,74.60
2019-03-09T05:58:17.552Z,73.80
2019-03-09T06:00:51.302Z,73.10
2019-03-09T06:03:20.632Z,72.60
2019-03-09T06:06:01.955Z,72.60
2019-03-09T06:08:31.277Z,71.20
2019-03-09T06:11:00.565Z,70.50
2019-03-09T06:13:30.252Z,70.40
2019-03-09T06:16:02.521Z,69.70
2019-03-09T06:18:31.942Z,69.50
2019-03-09T06:21:03.864Z,68.60
2019-03-09T06:23:33.289Z,68.70
2019-03-09T06:26:03.299Z,68.50
2019-03-09T06:28:33.580Z,68.50
2019-03-09T06:31:11.673Z,68.60
2019-03-09T06:33:42.091Z,68.80
2019-03-09T06:36:34.624Z,68.30
2019-03-09T06:39:12.538Z,67.60
2019-03-09T06:41:49.025Z,67.40
2019-03-09T06:44:18.343Z,66.80
2019-03-09T06:46:47.746Z,66.60
2019-03-09T06:49:17.209Z,65.30
2019-03-09T06:51:47.162Z,64.60
2019-03-09T06:54:16.437Z,64.30
2019-03-09T06:56:45.866Z,64.80
2019-03-09T06:59:15.206Z,64.30
2019-03-09T07:01:44.573Z,64.40
2019-03-09T07:04:13.949Z,64.70
2019-03-09T07:06:43.384Z,65.10
2019-03-09T07:09:12.697Z,65.40
2019-03-09T07:11:43.180Z,65.30
2019-03-09T07:14:47.855Z,64.80
2019-03-09T07:17:17.341Z,64.30
2019-03-09T07:19:47.853Z,64.00
2019-03-09T07:22:20.841Z,64.10
2019-03-09T07:24:51.735Z,64.10
2019-03-09T07:27:25.224Z,64.50
2019-03-09T07:29:56.726Z,63.80
2019-03-09T07:32:27.774Z,64.10
2019-03-09T07:35:06.598Z,64.00
2019-03-09T07:37:37.096Z,64.40
2019-03-09T07:40:10.960Z,64.70
2019-03-09T07:42:43.738Z,64.80
2019-03-09T07:45:21.227Z,65.30
2019-03-09T07:47:53.817Z,66.00
2019-03-09T07:50:28.554Z,65.90
2019-03-09T07:53:09.312Z,66.20
2019-03-09T07:55:39.678Z,65.70
2019-03-09T07:58:13.698Z,65.20
2019-03-09T08:00:48.165Z,65.10
2019-03-09T08:03:23.409Z,64.90
2019-03-09T08:05:57.750Z,64.40
2019-03-09T08:08:30.701Z,64.40
2019-03-09T08:11:03.194Z,64.60
2019-03-09T08:13:35.114Z,64.30
2019-03-09T08:16:24.046Z,63.30
2019-03-09T08:18:54.362Z,63.00
2019-03-09T08:21:27.781Z,62.50
2019-03-09T08:23:57.699Z,61.50
2019-03-09T08:26:28.984Z,59.80
2019-03-09T08:29:06.726Z,58.60
2019-03-09T08:31:38.185Z,57.10
2019-03-09T08:34:11.163Z,56.90
2019-03-09T08:36:41.890Z,55.50
2019-03-09T08:39:12.775Z,53.20
2019-03-09T08:41:43.170Z,51.70
2019-03-09T08:44:13.294Z,49.90
2019-03-09T08:46:43.628Z,48.90
2019-03-09T08:49:16.210Z,48.20
2019-03-09T08:51:46.298Z,47.40
2019-03-09T08:54:19.885Z,46.40
2019-03-09T08:56:53.837Z,45.60
2019-03-09T08:59:26.817Z,45.10
2019-03-09T09:01:59.727Z,45.40
2019-03-09T09:04:34.661Z,45.70
2019-03-09T09:07:06.107Z,45.40
2019-03-09T09:09:45.254Z,45.80
2019-03-09T09:12:23.284Z,46.20
2019-03-09T09:14:55.755Z,46.50
2019-03-09T09:17:25.607Z,47.30
2019-03-09T09:19:59.746Z,47.80
2019-03-09T09:22:29.059Z,48.90
2019-03-09T09:24:59.550Z,49.50
2019-03-09T09:27:39.482Z,49.70
2019-03-09T09:30:22.721Z,50.20
2019-03-09T09:32:55.920Z,50.50
2019-03-09T09:35:29.881Z,50.60
2019-03-09T09:38:07.267Z,50.60
2019-03-09T09:40:38.155Z,50.20
2019-03-09T09:43:29.034Z,50.00
2019-03-09T09:46:04.182Z,48.70
2019-03-09T09:48:36.770Z,48.80
2019-03-09T09:51:23.876Z,48.80
2019-03-09T09:53:55.210Z,48.90
2019-03-09T09:56:25.467Z,48.40
2019-03-09T09:58:58.663Z,48.60
2019-03-09T10:01:28.055Z,47.90
2019-03-09T10:04:01.409Z,47.30
2019-03-09T10:06:32.186Z,46.90
2019-03-09T10:09:04.662Z,46.80
2019-03-09T10:11:37.419Z,46.90
2019-03-09T10:14:13.318Z,47.30
2019-03-09T10:16:46.752Z,46.40
2019-03-09T10:19:16.620Z,46.10
2019-03-09T10:21:49.376Z,45.90
2019-03-09T10:24:21.829Z,45.40
2019-03-09T10:26:53.353Z,45.20
2019-03-09T10:29:36.019Z,45.10
2019-03-09T10:32:30.565Z,45.70
2019-03-09T10:35:03.651Z,46.00
2019-03-09T10:37:38.377Z,45.70
2019-03-09T10:40:09.694Z,45.50
2019-03-09T10:42:39.923Z,45.30
2019-03-09T10:45:11.894Z,45.20
2019-03-09T10:47:42.912Z,44.60
2019-03-09T10:50:13.544Z,43.60
2019-03-09T10:52:50.230Z,44.30
2019-03-09T10:55:32.734Z,44.30
2019-03-09T10:58:02.864Z,45.10
2019-03-09T11:00:38.881Z,45.60
2019-03-09T11:03:23.859Z,45.30
2019-03-09T11:05:54.858Z,45.70
2019-03-09T11:08:27.973Z,45.50
2019-03-09T11:11:05.664Z,45.90
2019-03-09T11:13:38.724Z,44.40
2019-03-09T11:16:11.550Z,44.10
2019-03-09T11:18:51.719Z,44.70
2019-03-09T11:21:26.359Z,47.20
2019-03-09T11:23:59.170Z,47.90
2019-03-09T11:26:36.180Z,49.40
2019-03-09T11:29:08.225Z,48.70
2019-03-09T11:31:43.527Z,48.30
2019-03-09T11:34:15.632Z,47.10
2019-03-09T11:36:56.507Z,46.90
2019-03-09T11:39:27.418Z,46.80
2019-03-09T11:41:56.966Z,45.70
2019-03-09T11:44:30.167Z,46.40
2019-03-09T11:47:02.195Z,46.00
2019-03-09T11:49:33.075Z,46.40
2019-03-09T11:52:03.771Z,46.90
2019-03-09T11:54:36.473Z,47.40
2019-03-09T11:57:10.405Z,48.30
2019-03-09T11:59:40.098Z,48.70
2019-03-09T12:02:19.154Z,49.00
2019-03-09T12:04:54.038Z,48.90
2019-03-09T12:07:35.309Z,48.70
2019-03-09T12:10:06.112Z,48.00
2019-03-09T12:12:39.935Z,48.20
2019-03-09T12:15:10.599Z,48.40
2019-03-09T12:17:42.690Z,48.80
2019-03-09T12:20:17.514Z,49.70
2019-03-09T12:23:00.973Z,50.10
2019-03-09T12:25:27.340Z,49.90
2019-03-09T12:28:00.603Z,49.50
2019-03-09T12:30:33.727Z,49.60
2019-03-09T12:33:09.988Z,49.60
2019-03-09T12:35:40.646Z,49.60
2019-03-09T12:38:13.715Z,49.20
2019-03-09T12:40:44.494Z,48.70
2019-03-09T12:43:14.889Z,48.30
2019-03-09T12:45:48.827Z,48.40
2019-03-09T12:48:18.877Z,48.00
2019-03-09T12:50:50.603Z,47.50
2019-03-09T12:53:23.834Z,48.30
2019-03-09T12:55:56.548Z,48.00
2019-03-09T12:58:28.323Z,47.40
2019-03-09T13:01:02.352Z,46.90
2019-03-09T13:03:35.924Z,47.20
2019-03-09T13:06:06.804Z,47.50
2019-03-09T13:08:41.273Z,48.40
2019-03-09T13:11:13.901Z,48.60
2019-03-09T13:13:47.661Z,48.80
2019-03-09T13:16:24.625Z,49.40
2019-03-09T13:18:54.319Z,49.50
2019-03-09T13:21:47.732Z,49.70
2019-03-09T13:24:19.777Z,49.80
2019-03-09T13:26:58.283Z,49.80
2019-03-09T13:29:29.730Z,49.60
2019-03-09T13:32:12.838Z,49.90
2019-03-09T13:34:44.691Z,50.10
2019-03-09T13:37:14.760Z,50.10
2019-03-09T13:39:53.026Z,50.00
2019-03-09T13:42:23.486Z,50.20
2019-03-09T13:44:59.131Z,50.10
2019-03-09T13:47:34.162Z,50.30
2019-03-09T13:50:16.238Z,50.60
2019-03-09T13:54:03.613Z,51.00
2019-03-09T13:56:52.321Z,50.40
2019-03-09T13:59:48.126Z,50.70
2019-03-09T14:02:34.866Z,50.40
2019-03-09T14:05:26.561Z,50.30
2019-03-09T14:07:56.130Z,49.50
2019-03-09T14:10:28.414Z,49.70
2019-03-09T14:13:03.688Z,49.80
2019-03-09T14:15:55.566Z,49.40
2019-03-09T14:18:32.728Z,49.20
2019-03-09T14:21:02.194Z,49.00
2019-03-09T14:23:33.732Z,49.40
2019-03-09T14:26:03.082Z,49.40
2019-03-09T14:28:32.470Z,49.60
2019-03-09T14:31:01.856Z,49.60
2019-03-09T14:33:32.909Z,49.80
2019-03-09T14:36:02.526Z,50.30
2019-03-09T14:38:35.333Z,50.40
2019-03-09T14:41:04.806Z,51.10
2019-03-09T14:43:35.369Z,51.30
2019-03-09T14:46:04.637Z,51.20
2019-03-09T14:48:34.547Z,50.80
2019-03-09T14:51:04.359Z,50.60
2019-03-09T14:53:34.119Z,50.50
2019-03-09T14:56:03.709Z,49.70
2019-03-09T14:58:33.150Z,49.40
2019-03-09T15:01:02.423Z,49.50
2019-03-09T15:03:31.882Z,49.70
2019-03-09T15:06:01.325Z,49.50
2019-03-09T15:08:31.050Z,49.10
2019-03-09T15:11:00.745Z,48.90
2019-03-09T15:13:30.501Z,49.10
2019-03-09T15:16:00.895Z,49.00
2019-03-09T15:18:30.287Z,49.40
2019-03-09T15:20:59.762Z,49.40
2019-03-09T15:23:30.306Z,49.60
2019-03-09T15:25:59.606Z,49.00
2019-03-09T15:28:29.310Z,49.40
2019-03-09T15:30:58.658Z,49.50
2019-03-09T15:33:30.381Z,49.80
2019-03-09T15:35:59.796Z,50.10
2019-03-09T15:38:29.137Z,50.40
2019-03-09T15:40:59.461Z,50.60
2019-03-09T15:43:29.953Z,50.80
2019-03-09T15:45:59.386Z,51.00
2019-03-09T15:48:28.810Z,51.00
2019-03-09T15:50:58.243Z,51.10
2019-03-09T15:53:27.731Z,50.90
2019-03-09T15:55:57.094Z,51.00
2019-03-09T15:58:26.852Z,51.20
2019-03-09T16:00:59.385Z,51.40
2019-03-09T16:03:28.826Z,51.70
2019-03-09T16:05:58.172Z,51.60
2019-03-09T16:08:27.596Z,51.70
2019-03-09T16:10:56.963Z,51.80
2019-03-09T16:13:29.494Z,51.90
2019-03-09T16:15:59.231Z,52.20
2019-03-09T16:18:28.741Z,52.40
2019-03-09T16:20:58.108Z,52.50
2019-03-09T16:23:27.497Z,52.70
2019-03-09T16:26:03.439Z,53.00
2019-03-09T16:28:32.807Z,53.20
2019-03-09T16:31:02.188Z,53.40
2019-03-09T16:33:32.137Z,53.70
2019-03-09T16:36:01.535Z,53.80
2019-03-09T16:38:30.905Z,53.90
2019-03-09T16:41:00.357Z,54.10
2019-03-09T16:43:29.728Z,54.20
2019-03-09T16:45:59.814Z,54.30
2019-03-09T16:48:29.274Z,54.30
2019-03-09T16:50:58.764Z,54.40
2019-03-09T16:53:28.093Z,54.50
2019-03-09T16:55:57.507Z,55.00
2019-03-09T16:58:26.868Z,55.00
2019-03-09T17:00:56.098Z,55.30
2019-03-09T17:03:25.525Z,55.10
2019-03-09T17:05:54.863Z,55.00
2019-03-09T17:08:24.245Z,54.70
2019-03-09T17:10:53.588Z,55.00
2019-03-09T17:13:23.023Z,55.20
2019-03-09T17:15:52.422Z,55.30
2019-03-09T17:18:21.887Z,55.20
2019-03-09T17:20:51.303Z,55.20
2019-03-09T17:23:21.172Z,55.40
2019-03-09T17:25:50.579Z,55.90
2019-03-09T17:28:21.522Z,56.00
2019-03-09T17:30:50.845Z,56.40
2019-03-09T17:33:20.220Z,56.60
2019-03-09T17:35:49.942Z,56.60
2019-03-09T17:41:17.440Z,56.90
2019-03-09T17:43:53.598Z,57.70
2019-03-09T17:46:24.253Z,60.90
2019-03-09T17:48:57.239Z,63.90
2019-03-09T17:51:31.159Z,64.30
2019-03-09T17:54:03.487Z,65.70
2019-03-09T17:56:34.606Z,66.30
2019-03-09T17:59:05.127Z,66.20
2019-03-09T18:01:34.907Z,67.20
2019-03-09T18:04:04.425Z,67.30
2019-03-09T18:06:37.067Z,67.50
2019-03-09T18:09:11.698Z,68.20
2019-03-09T18:11:42.543Z,68.70
2019-03-09T18:14:12.062Z,69.00
2019-03-09T18:16:41.405Z,69.40
2019-03-09T18:19:10.860Z,70.20
2019-03-09T18:21:43.524Z,71.20
2019-03-09T18:24:17.072Z,72.60
2019-03-09T18:26:48.156Z,73.20
2019-03-09T18:29:17.930Z,74.70
2019-03-09T18:31:47.709Z,76.90
2019-03-09T18:34:17.857Z,79.00
2019-03-09T18:37:04.891Z,81.00
2019-03-09T18:39:34.939Z,81.70
2019-03-09T18:42:07.085Z,82.30
2019-03-09T18:44:38.581Z,82.00
2019-03-09T18:47:11.548Z,82.50
2019-03-09T18:49:43.321Z,83.40
2019-03-09T18:52:34.342Z,84.20
2019-03-09T18:55:23.720Z,84.60
2019-03-09T18:58:03.290Z,85.00
2019-03-09T19:00:40.008Z,84.90
2019-03-09T19:03:11.113Z,85.20
2019-03-09T19:05:40.808Z,84.80
2019-03-09T19:08:12.504Z,84.50
2019-03-09T19:10:41.974Z,84.20
2019-03-09T19:13:11.754Z,83.80
2019-03-09T19:15:45.197Z,83.70
2019-03-09T19:18:17.958Z,84.40
2019-03-09T19:20:47.857Z,84.40
2019-03-09T19:23:21.767Z,84.50
2019-03-09T19:25:51.351Z,84.90
2019-03-09T19:31:45.132Z,85.10
2019-03-09T19:34:21.826Z,84.40
2019-03-09T19:37:06.690Z,85.40
2019-03-09T19:39:42.547Z,85.70
2019-03-09T19:42:19.564Z,87.60
2019-03-09T19:44:51.764Z,90.00
2019-03-09T19:47:21.236Z,90.60
2019-03-09T19:49:50.664Z,90.70
2019-03-09T19:52:23.103Z,90.80
2019-03-09T19:54:53.632Z,91.10
2019-03-09T19:57:23.056Z,91.40
2019-03-09T19:59:52.466Z,91.50
2019-03-09T20:02:21.782Z,91.80
2019-03-09T20:04:51.534Z,91.70
2019-03-09T20:07:21.401Z,92.00
2019-03-09T20:09:51.774Z,91.80
2019-03-09T20:12:21.166Z,91.70
2019-03-09T20:14:50.772Z,91.80
2019-03-09T20:17:20.557Z,91.90
2019-03-09T20:19:50.163Z,92.20
2019-03-09T20:22:20.172Z,92.30
2019-03-09T20:24:49.836Z,92.30
2019-03-09T20:27:20.422Z,92.50
2019-03-09T20:29:49.795Z,92.80
2019-03-09T20:32:19.290Z,92.90
2019-03-09T20:34:48.967Z,92.70
2019-03-09T20:37:19.730Z,93.20
2019-03-09T20:39:51.162Z,93.40
2019-03-09T20:42:21.431Z,93.50
2019-03-09T20:44:51.026Z,93.50
2019-03-09T20:47:20.366Z,92.80
2019-03-09T20:49:50.072Z,91.50
2019-03-09T20:52:19.504Z,90.50
2019-03-09T20:54:49.503Z,88.90
2019-03-09T20:57:21.050Z,86.40
2019-03-09T20:59:50.491Z,85.70
2019-03-09T21:02:20.512Z,84.80
2019-03-09T21:04:50.095Z,84.50
2019-03-09T21:07:23.566Z,83.10
2019-03-09T21:09:52.995Z,82.10
2019-03-09T21:12:23.489Z,80.90
2019-03-09T21:14:53.198Z,80.60
2019-03-09T21:17:23.179Z,81.40
2019-03-09T21:19:53.849Z,80.70
2019-03-09T21:22:23.167Z,79.60
2019-03-09T21:24:54.092Z,79.10
2019-03-09T21:27:23.575Z,78.90
2019-03-09T21:29:52.845Z,77.90
2019-03-09T21:32:22.376Z,77.50
2019-03-09T21:34:51.746Z,77.50
2019-03-09T21:37:21.273Z,76.80
2019-03-09T21:39:50.611Z,76.00
2019-03-09T21:42:20.203Z,76.30
2019-03-09T21:44:49.592Z,76.70
2019-03-09T21:47:19.122Z,75.60
2019-03-09T21:49:48.485Z,76.50
2019-03-09T21:52:18.162Z,76.40
2019-03-09T21:54:47.715Z,76.10
2019-03-09T21:57:17.426Z,76.50
2019-03-09T21:59:46.687Z,76.30
2019-03-09T22:02:16.106Z,75.70
2019-03-09T22:04:45.946Z,75.70
2019-03-09T22:07:16.501Z,75.50
2019-03-09T22:09:45.913Z,74.10
2019-03-09T22:12:15.523Z,74.20
2019-03-09T22:14:44.915Z,74.10
2019-03-09T22:17:14.454Z,73.60
2019-03-09T22:19:43.837Z,73.60
2019-03-09T22:22:13.309Z,72.20
2019-03-09T22:24:42.695Z,71.90
2019-03-09T22:27:12.497Z,70.90
2019-03-09T22:29:42.370Z,69.20
2019-03-09T22:32:11.796Z,69.00
2019-03-09T22:34:41.454Z,68.90
2019-03-09T22:37:10.891Z,69.60
2019-03-09T22:39:40.431Z,69.70
2019-03-09T22:42:10.028Z,68.40
2019-03-09T22:44:39.420Z,67.80
2019-03-09T22:47:11.782Z,67.10
2019-03-09T22:49:42.618Z,66.90
2019-03-09T22:52:16.055Z,66.90
2019-03-09T22:54:46.046Z,67.50
2019-03-09T22:57:18.139Z,66.90
2019-03-09T22:59:47.731Z,66.80
2019-03-09T23:02:17.080Z,66.50
2019-03-09T23:04:46.686Z,66.40
2019-03-09T23:07:16.246Z,66.00
2019-03-09T23:09:45.729Z,66.30
2019-03-09T23:12:15.105Z,66.50
2019-03-09T23:14:44.635Z,65.40
2019-03-09T23:17:15.445Z,65.30
2019-03-09T23:19:44.926Z,64.40
2019-03-09T23:22:14.303Z,63.50
2019-03-09T23:24:43.583Z,62.60
2019-03-09T23:27:13.103Z,62.10
2019-03-09T23:29:42.586Z,62.00
2019-03-09T23:32:12.057Z,61.30
2019-03-09T23:34:41.784Z,61.20
2019-03-09T23:37:11.511Z,61.10
2019-03-09T23:39:40.879Z,61.20
2019-03-09T23:42:11.006Z,61.20
2019-03-09T23:44:40.659Z,61.30
2019-03-09T23:47:12.443Z,61.40
2019-03-09T23:49:41.734Z,61.10
2019-03-09T23:52:11.213Z,61.10
2019-03-09T23:54:40.588Z,61.00
2019-03-09T23:57:10.017Z,61.00
2019-03-09T23:59:39.580Z,61.20
